Time;durP1;ratioP1;P1;durP2;ratioP2;P2;SDS_P1;SDS_P2;PMS_P1;PMS_P2;Temp;Humidity;BMP_temperature;BMP_pressure;BME280_temperature;BME280_humidity;BME280_pressure;Samples;Min_cycle;Max_cycle;Signal;HPM_P1;HPM_P2
2020/12/05 00:01:23;;;;;;;5.80;4.10;;;-0.50;99.90;;;;;;5075941;28;20177;-70
2020/12/05 00:03:49;;;;;;;6.40;4.83;;;-0.60;99.90;;;;;;5079072;28;20197;-70
2020/12/05 00:06:22;;;;;;;5.40;4.37;;;-0.50;99.90;;;;;;5078047;28;20657;-70
2020/12/05 00:08:51;;;;;;;5.13;4.23;;;-0.60;99.90;;;;;;5077643;28;20181;-69
2020/12/05 00:11:27;;;;;;;4.50;3.77;;;-0.70;99.90;;;;;;5078563;28;20212;-70
2020/12/05 00:13:53;;;;;;;5.00;3.87;;;-0.70;99.90;;;;;;5073012;28;20350;-70
2020/12/05 00:16:19;;;;;;;4.00;2.90;;;-0.70;99.90;;;;;;5077278;28;20221;-69
2020/12/05 00:18:44;;;;;;;4.33;3.70;;;-0.70;99.90;;;;;;5078513;28;20231;-70
2020/12/05 00:21:10;;;;;;;5.67;4.93;;;-0.70;99.90;;;;;;5075208;28;20177;-70
2020/12/05 00:23:35;;;;;;;5.60;4.73;;;-0.70;99.90;;;;;;5075451;28;20208;-71
2020/12/05 00:26:01;;;;;;;5.83;4.50;;;-0.70;99.90;;;;;;5071195;28;20589;-70
2020/12/05 00:28:27;;;;;;;5.87;4.63;;;-0.70;99.90;;;;;;5069780;28;20204;-70
2020/12/05 00:30:52;;;;;;;6.10;4.90;;;-0.70;99.90;;;;;;5074949;28;20686;-70
2020/12/05 00:33:18;;;;;;;6.33;3.97;;;-0.70;99.90;;;;;;5074825;28;20209;-70
2020/12/05 00:35:43;;;;;;;4.77;4.17;;;-0.70;99.90;;;;;;5071787;28;20202;-70
2020/12/05 00:38:09;;;;;;;7.17;4.57;;;-0.60;99.90;;;;;;5078568;28;20208;-71
2020/12/05 00:40:35;;;;;;;4.67;4.17;;;-0.60;99.90;;;;;;5077414;28;20186;-72
2020/12/05 00:43:00;;;;;;;6.77;4.70;;;-0.60;99.90;;;;;;5075737;28;20690;-72
2020/12/05 00:45:26;;;;;;;4.60;3.73;;;-0.60;99.90;;;;;;5074769;28;20292;-70
2020/12/05 00:47:52;;;;;;;8.70;5.73;;;-0.50;99.90;;;;;;5074562;28;20189;-70
2020/12/05 00:50:17;;;;;;;5.67;4.67;;;-0.50;99.90;;;;;;5077688;28;20197;-70
2020/12/05 00:52:43;;;;;;;3.80;3.50;;;-0.50;99.90;;;;;;5072251;28;20200;-70
2020/12/05 00:55:09;;;;;;;6.50;4.60;;;-0.40;99.90;;;;;;5076012;28;20194;-70
2020/12/05 00:57:34;;;;;;;4.97;3.60;;;-0.30;99.90;;;;;;5078343;28;20291;-70
2020/12/05 01:00:00;;;;;;;8.67;5.10;;;-0.30;99.90;;;;;;5080187;28;20238;-70
2020/12/05 01:02:26;;;;;;;7.03;5.67;;;-0.20;99.90;;;;;;5078857;28;20185;-70
2020/12/05 01:04:52;;;;;;;6.43;4.77;;;-0.10;99.90;;;;;;5074782;28;20662;-71
2020/12/05 01:07:22;;;;;;;7.67;5.10;;;-0.10;99.90;;;;;;5079485;28;20234;-70
2020/12/05 01:09:48;;;;;;;5.20;3.80;;;0.00;99.90;;;;;;5074708;28;20313;-73
2020/12/05 01:12:14;;;;;;;5.47;4.93;;;0.00;99.90;;;;;;5078414;28;20303;-72
2020/12/05 01:14:39;;;;;;;5.47;4.97;;;-0.10;99.90;;;;;;5076734;28;20205;-70
2020/12/05 01:17:06;;;;;;;6.00;4.00;;;-0.10;99.90;;;;;;5074463;28;20211;-70
2020/12/05 01:19:32;;;;;;;6.13;4.53;;;-0.10;99.90;;;;;;5078086;28;20462;-70
2020/12/05 01:21:57;;;;;;;6.40;4.50;;;-0.10;99.90;;;;;;5074883;28;20200;-70
2020/12/05 01:24:23;;;;;;;7.73;5.53;;;-0.10;99.90;;;;;;5076959;28;20200;-70
2020/12/05 01:26:49;;;;;;;7.20;5.13;;;0.00;99.90;;;;;;5075558;28;20196;-70
2020/12/05 01:29:15;;;;;;;5.40;3.93;;;-0.10;99.90;;;;;;5075021;28;20189;-70
2020/12/05 01:31:41;;;;;;;9.37;5.77;;;-0.10;99.90;;;;;;5076621;28;20275;-71
2020/12/05 01:34:06;;;;;;;7.20;5.20;;;-0.10;99.90;;;;;;5075946;28;20323;-70
2020/12/05 01:36:32;;;;;;;5.37;4.63;;;-0.10;99.90;;;;;;5075157;28;20200;-69
2020/12/05 01:38:59;;;;;;;6.77;4.93;;;-0.10;99.90;;;;;;5074339;28;20709;-70
2020/12/05 01:41:24;;;;;;;3.80;3.40;;;-0.10;99.90;;;;;;5074301;28;20187;-70
2020/12/05 01:43:50;;;;;;;6.17;4.57;;;-0.10;99.90;;;;;;5074076;28;20560;-71
2020/12/05 01:46:47;;;;;;;5.93;5.00;;;0.00;99.90;;;;;;5077616;28;20181;-70
2020/12/05 01:49:17;;;;;;;5.83;4.37;;;0.10;99.90;;;;;;5059509;28;20958;-70
2020/12/05 01:51:44;;;;;;;4.70;4.17;;;0.10;99.90;;;;;;5074565;28;20238;-70
2020/12/05 01:54:10;;;;;;;9.23;5.47;;;0.10;99.90;;;;;;5069914;28;20299;-70
2020/12/05 01:56:37;;;;;;;5.93;4.20;;;0.10;99.90;;;;;;5077076;28;20985;-70
2020/12/05 01:59:03;;;;;;;7.20;4.87;;;0.20;99.90;;;;;;5076473;28;20535;-70
2020/12/05 02:01:30;;;;;;;6.90;5.20;;;0.20;99.90;;;;;;5073297;28;20641;-70
2020/12/05 02:03:57;;;;;;;6.60;4.77;;;0.20;99.90;;;;;;5078493;28;20217;-70
2020/12/05 02:06:59;;;;;;;6.57;4.83;;;0.20;99.90;;;;;;5075672;28;20648;-70
2020/12/05 02:09:31;;;;;;;4.57;4.17;;;0.20;99.90;;;;;;5075160;28;20195;-69
2020/12/05 02:12:32;;;;;;;4.83;3.50;;;0.20;99.90;;;;;;5073776;28;20185;-70
2020/12/05 02:15:16;;;;;;;6.90;5.00;;;0.20;99.90;;;;;;5073011;28;20676;-69
2020/12/05 02:18:04;;;;;;;7.07;4.63;;;0.20;99.90;;;;;;5075338;28;20268;-70
2020/12/05 02:20:33;;;;;;;5.13;3.20;;;0.30;99.90;;;;;;5074712;28;20196;-70
2020/12/05 02:23:27;;;;;;;6.70;5.10;;;0.40;99.90;;;;;;5075093;28;20221;-69
2020/12/05 02:26:02;;;;;;;6.67;5.13;;;0.30;99.90;;;;;;5075766;28;20236;-70
2020/12/05 02:28:28;;;;;;;5.07;4.00;;;0.40;99.90;;;;;;5075975;28;20188;-71
2020/12/05 02:30:54;;;;;;;7.57;4.23;;;0.30;99.90;;;;;;5072822;28;20221;-70
2020/12/05 02:33:20;;;;;;;5.93;4.80;;;0.30;99.90;;;;;;5074564;28;20572;-71
2020/12/05 02:35:46;;;;;;;7.17;4.93;;;0.40;99.90;;;;;;5077427;28;20253;-71
2020/12/05 02:38:22;;;;;;;5.87;4.50;;;0.40;99.90;;;;;;5076641;28;20181;-70
2020/12/05 02:40:49;;;;;;;5.90;5.30;;;0.40;99.90;;;;;;5081806;28;20181;-70
2020/12/05 02:43:15;;;;;;;6.60;4.57;;;0.50;99.90;;;;;;5076847;28;20209;-70
2020/12/05 02:45:41;;;;;;;5.97;5.03;;;0.50;99.90;;;;;;5078533;28;20245;-70
2020/12/05 02:48:08;;;;;;;8.00;5.57;;;0.50;99.90;;;;;;5077737;28;20195;-70
2020/12/05 02:50:33;;;;;;;6.57;4.70;;;0.50;99.90;;;;;;5075041;28;20201;-70
2020/12/05 02:52:59;;;;;;;5.23;4.73;;;0.50;99.90;;;;;;5078959;28;20213;-72
2020/12/05 02:55:25;;;;;;;6.07;4.70;;;0.50;99.90;;;;;;5080969;28;20699;-70
2020/12/05 02:57:50;;;;;;;5.57;4.50;;;0.50;99.90;;;;;;5075027;28;20181;-70
2020/12/05 03:00:16;;;;;;;8.20;6.17;;;0.60;99.90;;;;;;5072934;28;20196;-70
2020/12/05 03:02:42;;;;;;;6.93;5.57;;;0.70;99.90;;;;;;5077333;28;20201;-69
2020/12/05 03:05:08;;;;;;;8.73;5.80;;;0.80;99.90;;;;;;5079467;28;20173;-70
2020/12/05 03:07:33;;;;;;;6.80;5.10;;;0.80;99.90;;;;;;5074494;28;20185;-70
2020/12/05 03:09:59;;;;;;;7.43;4.70;;;0.90;99.90;;;;;;5079288;28;20227;-71
2020/12/05 03:12:25;;;;;;;5.57;4.63;;;1.00;99.90;;;;;;5076504;28;20303;-69
2020/12/05 03:14:50;;;;;;;7.00;5.70;;;1.00;99.90;;;;;;5076911;28;20185;-70
2020/12/05 03:17:16;;;;;;;6.77;5.73;;;1.00;99.90;;;;;;5079658;28;20206;-70
2020/12/05 03:19:41;;;;;;;6.60;5.47;;;1.00;99.90;;;;;;5078170;28;20193;-70
2020/12/05 03:22:07;;;;;;;6.97;5.23;;;1.00;99.90;;;;;;5074379;28;20189;-70
2020/12/05 03:24:33;;;;;;;9.33;4.83;;;1.10;99.90;;;;;;5076719;28;20212;-70
2020/12/05 03:26:58;;;;;;;7.37;4.60;;;1.00;99.90;;;;;;5079404;28;20188;-70
2020/12/05 03:29:24;;;;;;;5.03;4.03;;;1.00;99.90;;;;;;5078199;28;20180;-69
2020/12/05 03:32:08;;;;;;;7.23;5.23;;;1.10;99.90;;;;;;5075980;28;20188;-70
2020/12/05 03:34:33;;;;;;;6.83;4.97;;;1.00;99.90;;;;;;5074192;28;20197;-71
2020/12/05 03:36:59;;;;;;;7.77;4.43;;;1.00;99.90;;;;;;5078778;28;20215;-72
2020/12/05 03:39:24;;;;;;;8.93;5.67;;;1.00;99.90;;;;;;5105330;22;20231;-80
2020/12/05 03:41:50;;;;;;;7.43;5.67;;;0.80;99.90;;;;;;5087043;28;20177;-78
2020/12/05 03:44:15;;;;;;;5.77;4.73;;;0.90;99.90;;;;;;5086989;28;21187;-79
2020/12/05 03:46:41;;;;;;;8.07;4.83;;;0.80;99.90;;;;;;5086409;28;20256;-78
2020/12/05 03:49:07;;;;;;;5.77;3.60;;;0.70;99.90;;;;;;5085965;28;20204;-81
2020/12/05 03:51:32;;;;;;;6.77;5.37;;;0.70;99.90;;;;;;5086287;28;20275;-78
2020/12/05 03:53:58;;;;;;;7.37;4.53;;;0.70;99.90;;;;;;5086525;28;20681;-80
2020/12/05 03:56:24;;;;;;;6.20;4.77;;;0.70;99.90;;;;;;5085858;28;20220;-79
2020/12/05 03:58:51;;;;;;;4.70;3.73;;;0.70;99.90;;;;;;5086020;28;20735;-79
2020/12/05 04:01:17;;;;;;;5.60;5.07;;;0.70;99.90;;;;;;5087060;28;20208;-79
2020/12/05 04:03:43;;;;;;;7.77;4.97;;;0.70;99.90;;;;;;5087798;28;20183;-79
2020/12/05 04:06:08;;;;;;;7.40;5.80;;;0.80;99.90;;;;;;5085791;28;20962;-78
2020/12/05 04:08:34;;;;;;;7.23;5.67;;;0.70;99.90;;;;;;5087761;28;20224;-80
2020/12/05 04:10:59;;;;;;;6.63;4.87;;;0.70;99.90;;;;;;5086454;28;20202;-82
2020/12/05 04:13:25;;;;;;;6.23;4.10;;;0.70;99.90;;;;;;5087633;28;20271;-78
2020/12/05 04:15:50;;;;;;;5.13;4.60;;;0.70;99.90;;;;;;5086011;28;20208;-79
2020/12/05 04:18:16;;;;;;;6.90;4.93;;;0.70;99.90;;;;;;5086642;28;20250;-78
2020/12/05 04:20:43;;;;;;;7.03;4.63;;;0.70;99.90;;;;;;5086214;28;20564;-79
2020/12/05 04:23:08;;;;;;;7.40;4.60;;;0.80;99.90;;;;;;5088307;28;20180;-79
2020/12/05 04:25:34;;;;;;;5.60;4.17;;;0.70;99.90;;;;;;5087176;28;20177;-78
2020/12/05 04:27:59;;;;;;;6.43;4.10;;;0.70;99.90;;;;;;5102528;28;20393;-78
2020/12/05 04:30:25;;;;;;;5.20;4.33;;;0.70;99.90;;;;;;5086999;28;20191;-79
2020/12/05 04:32:51;;;;;;;7.00;5.00;;;0.60;99.90;;;;;;5087409;28;20199;-80
2020/12/05 04:35:16;;;;;;;6.33;5.27;;;0.70;99.90;;;;;;5087200;28;20289;-78
2020/12/05 04:37:42;;;;;;;6.83;3.90;;;0.70;99.90;;;;;;5085942;28;20191;-79
2020/12/05 04:40:07;;;;;;;7.43;5.07;;;0.70;99.90;;;;;;5085692;28;20594;-78
2020/12/05 04:42:33;;;;;;;5.47;4.30;;;0.70;99.90;;;;;;5084522;28;20195;-79
2020/12/05 04:44:59;;;;;;;6.70;4.43;;;0.70;99.90;;;;;;5083009;28;20193;-79
2020/12/05 04:47:27;;;;;;;7.17;6.13;;;0.70;99.90;;;;;;5083111;28;20188;-80
2020/12/05 04:49:57;;;;;;;7.60;4.23;;;0.70;99.90;;;;;;5080529;28;20570;-79
2020/12/05 04:52:25;;;;;;;6.10;5.10;;;0.70;99.90;;;;;;5081687;28;20196;-79
2020/12/05 04:54:53;;;;;;;9.80;6.00;;;0.70;99.90;;;;;;5081759;28;20185;-79
2020/12/05 04:57:21;;;;;;;7.57;5.53;;;0.70;99.90;;;;;;5082890;28;20196;-79
2020/12/05 04:59:49;;;;;;;7.17;5.70;;;0.70;99.90;;;;;;5082317;28;20193;-80
2020/12/05 05:02:17;;;;;;;6.47;4.77;;;0.70;99.90;;;;;;5082632;28;20547;-79
2020/12/05 05:04:43;;;;;;;9.43;5.60;;;0.70;99.90;;;;;;5082707;28;20199;-79
2020/12/05 05:07:08;;;;;;;7.20;4.53;;;0.70;99.90;;;;;;5080902;28;20189;-79
2020/12/05 05:09:34;;;;;;;7.73;5.93;;;0.70;99.90;;;;;;5082044;28;20235;-79
2020/12/05 05:11:59;;;;;;;6.90;5.33;;;0.80;99.90;;;;;;5080939;28;20274;-79
2020/12/05 05:14:34;;;;;;;8.50;5.13;;;0.80;99.90;;;;;;5081236;28;20471;-79
2020/12/05 05:17:06;;;;;;;6.10;4.33;;;0.70;99.90;;;;;;5082096;28;20208;-78
2020/12/05 05:19:35;;;;;;;5.47;4.53;;;0.80;99.90;;;;;;5081061;28;20283;-79
2020/12/05 05:22:02;;;;;;;7.33;5.00;;;0.80;99.90;;;;;;5081012;28;20185;-78
2020/12/05 05:24:28;;;;;;;4.73;3.90;;;0.70;99.90;;;;;;5082101;28;20181;-79
2020/12/05 05:27:03;;;;;;;6.70;5.17;;;0.90;99.90;;;;;;5082531;28;20189;-79
2020/12/05 05:29:37;;;;;;;6.43;5.03;;;0.90;99.90;;;;;;5080839;28;20362;-80
2020/12/05 05:34:29;;;;;;;5.87;4.23;;;0.80;99.90;;;;;;5082966;28;20192;-79
2020/12/05 05:36:55;;;;;;;5.63;4.67;;;0.80;99.90;;;;;;5080083;28;20482;-78
2020/12/05 05:39:21;;;;;;;4.80;4.07;;;0.80;99.90;;;;;;5080924;28;20259;-79
2020/12/05 05:41:49;;;;;;;5.47;4.50;;;0.80;99.90;;;;;;5081494;28;20513;-79
2020/12/05 05:44:18;;;;;;;7.67;4.67;;;0.70;99.90;;;;;;5080824;28;20185;-79
2020/12/05 05:46:46;;;;;;;5.70;4.30;;;0.70;99.90;;;;;;5080751;28;20184;-79
2020/12/05 05:49:31;;;;;;;8.10;5.67;;;0.70;99.90;;;;;;5080446;28;21012;-80
2020/12/05 05:51:58;;;;;;;7.47;4.97;;;0.70;99.90;;;;;;5082059;28;20192;-79
2020/12/05 05:54:29;;;;;;;6.50;4.33;;;0.60;99.90;;;;;;5080671;28;20199;-80
2020/12/05 05:56:58;;;;;;;6.90;5.20;;;0.70;99.90;;;;;;5080325;28;20239;-79
2020/12/05 05:59:28;;;;;;;6.20;4.50;;;0.60;99.90;;;;;;5081676;28;20205;-79
2020/12/05 06:01:55;;;;;;;7.30;5.37;;;0.50;99.90;;;;;;5080214;28;20502;-79
2020/12/05 06:04:34;;;;;;;6.57;5.30;;;0.60;99.90;;;;;;5080702;28;20185;-79
2020/12/05 06:07:01;;;;;;;6.13;4.17;;;0.60;99.90;;;;;;5080629;28;20241;-80
2020/12/05 06:09:51;;;;;;;5.90;4.70;;;0.60;99.90;;;;;;5082038;28;20208;-79
2020/12/05 06:12:22;;;;;;;6.30;5.03;;;0.50;99.90;;;;;;5081405;28;20681;-80
2020/12/05 06:14:50;;;;;;;5.67;4.40;;;0.50;99.90;;;;;;5085548;28;20192;-78
2020/12/05 06:17:20;;;;;;;8.03;5.73;;;0.50;99.90;;;;;;5084058;28;20212;-79
2020/12/05 06:19:48;;;;;;;8.40;5.07;;;0.60;99.90;;;;;;5084325;28;20657;-78
2020/12/05 06:22:35;;;;;;;5.07;4.60;;;0.60;99.90;;;;;;5084394;28;20191;-79
2020/12/05 06:25:10;;;;;;;5.60;3.97;;;0.60;99.90;;;;;;5084676;28;20188;-79
2020/12/05 06:27:40;;;;;;;4.43;3.83;;;0.60;99.90;;;;;;5083707;28;20188;-79
2020/12/05 06:30:07;;;;;;;4.80;3.57;;;0.50;99.90;;;;;;5084749;28;20862;-78
2020/12/05 06:32:42;;;;;;;9.17;5.43;;;0.50;99.90;;;;;;5084935;28;20278;-79
2020/12/05 06:35:23;;;;;;;6.13;4.40;;;0.50;99.90;;;;;;5085079;28;20181;-79
2020/12/05 06:37:50;;;;;;;6.33;4.37;;;0.50;99.90;;;;;;5085297;28;20188;-78
2020/12/05 06:40:17;;;;;;;8.87;6.13;;;0.50;99.90;;;;;;5084816;28;21401;-79
2020/12/05 06:42:48;;;;;;;4.77;4.23;;;0.50;99.90;;;;;;5083172;28;20686;-80
2020/12/05 06:45:25;;;;;;;6.43;4.60;;;0.50;99.90;;;;;;5083162;28;20184;-79
2020/12/05 06:48:14;;;;;;;5.37;4.13;;;0.50;99.90;;;;;;5083535;28;21135;-80
2020/12/05 06:50:44;;;;;;;5.17;4.30;;;0.50;99.90;;;;;;5082664;28;20488;-80
2020/12/05 06:53:21;;;;;;;8.30;5.27;;;0.50;99.90;;;;;;5088341;28;20185;-79
2020/12/05 06:55:57;;;;;;;7.67;4.27;;;0.50;99.90;;;;;;5083875;28;20626;-79
2020/12/05 06:58:32;;;;;;;5.03;4.33;;;0.40;99.90;;;;;;5083090;28;20701;-78
2020/12/05 07:00:58;;;;;;;6.03;4.63;;;0.40;99.90;;;;;;5083548;28;20187;-79
2020/12/05 07:03:31;;;;;;;5.90;4.33;;;0.40;99.90;;;;;;5083613;28;20181;-79
2020/12/05 07:05:58;;;;;;;8.23;4.60;;;0.50;99.90;;;;;;5086271;28;20187;-79
2020/12/05 07:08:34;;;;;;;6.20;5.57;;;0.40;99.90;;;;;;5090168;28;20232;-78
2020/12/05 07:11:15;;;;;;;6.43;4.67;;;0.50;99.90;;;;;;5090611;28;20245;-79
2020/12/05 07:13:47;;;;;;;5.90;4.43;;;0.40;99.90;;;;;;5090628;28;20181;-81
2020/12/05 07:16:16;;;;;;;5.40;4.10;;;0.40;99.90;;;;;;5087422;28;20215;-80
2020/12/05 07:18:44;;;;;;;4.97;4.00;;;0.30;99.90;;;;;;5087823;28;20207;-81
2020/12/05 07:21:10;;;;;;;6.97;4.87;;;0.30;99.90;;;;;;5087100;28;20185;-80
2020/12/05 07:23:36;;;;;;;6.20;5.07;;;0.30;99.90;;;;;;5088816;28;20192;-79
2020/12/05 07:26:03;;;;;;;6.40;5.00;;;0.40;99.90;;;;;;5088325;28;20185;-79
2020/12/05 07:28:29;;;;;;;5.67;4.57;;;0.50;99.90;;;;;;5087116;28;20235;-80
2020/12/05 07:30:55;;;;;;;6.53;5.23;;;0.40;99.90;;;;;;5088950;28;20686;-80
2020/12/05 07:33:21;;;;;;;6.57;4.40;;;0.30;99.90;;;;;;5086324;28;20443;-77
2020/12/05 07:35:56;;;;;;;5.93;4.13;;;0.30;99.90;;;;;;5085069;28;20217;-79
2020/12/05 07:38:22;;;;;;;9.40;5.00;;;0.40;99.90;;;;;;5085660;28;20213;-76
2020/12/05 07:40:47;;;;;;;8.97;5.50;;;0.50;99.90;;;;;;5086272;28;20211;-81
2020/12/05 07:43:18;;;;;;;9.77;6.00;;;0.70;99.90;;;;;;5088743;28;20574;-81
2020/12/05 07:45:45;;;;;;;6.40;4.73;;;0.60;99.90;;;;;;5088010;28;20184;-81
2020/12/05 07:48:13;;;;;;;7.73;4.60;;;0.50;99.90;;;;;;5086551;28;20192;-79
2020/12/05 07:50:38;;;;;;;7.80;5.00;;;0.60;99.90;;;;;;5088535;28;20596;-80
2020/12/05 07:53:04;;;;;;;7.60;6.30;;;0.60;99.90;;;;;;5088993;28;20185;-79
2020/12/05 07:55:30;;;;;;;8.73;6.87;;;0.50;99.90;;;;;;5092161;28;20203;-81
2020/12/05 07:57:56;;;;;;;7.00;5.93;;;0.60;99.90;;;;;;5092075;28;20261;-80
2020/12/05 08:00:22;;;;;;;14.03;5.40;;;0.60;99.90;;;;;;5090172;28;20192;-80
2020/12/05 08:03:12;;;;;;;5.77;4.47;;;0.60;99.90;;;;;;5091811;28;20334;-80
2020/12/05 08:05:52;;;;;;;6.73;4.87;;;0.60;99.90;;;;;;5089552;28;20192;-79
2020/12/05 08:08:18;;;;;;;6.60;5.50;;;0.50;99.90;;;;;;5090434;28;20208;-80
2020/12/05 08:10:44;;;;;;;7.77;5.47;;;0.50;99.90;;;;;;5091279;28;20185;-81
2020/12/05 08:13:24;;;;;;;7.83;5.40;;;0.40;99.90;;;;;;5091205;28;20189;-80
2020/12/05 08:15:57;;;;;;;8.53;5.70;;;0.40;99.90;;;;;;5106056;28;20211;-79
2020/12/05 08:18:25;;;;;;;6.63;5.47;;;0.40;99.90;;;;;;5092276;28;20612;-80
2020/12/05 08:20:51;;;;;;;18.80;15.77;;;0.50;99.90;;;;;;5092258;28;20248;-80
2020/12/05 08:23:27;;;;;;;13.80;8.80;;;0.60;99.90;;;;;;5091135;28;20222;-82
2020/12/05 08:26:02;;;;;;;17.73;13.43;;;0.60;99.90;;;;;;5089980;28;20559;-80
2020/12/05 08:28:31;;;;;;;15.47;13.17;;;0.60;99.90;;;;;;5091194;28;20573;-82
2020/12/05 08:31:01;;;;;;;16.70;11.10;;;0.50;99.90;;;;;;5089200;28;20250;-81
2020/12/05 08:33:27;;;;;;;10.87;6.50;;;0.50;99.90;;;;;;5106609;28;20935;-80
2020/12/05 08:35:53;;;;;;;9.63;8.10;;;0.50;99.90;;;;;;5088532;28;20266;-81
2020/12/05 08:38:22;;;;;;;8.30;6.87;;;0.50;99.90;;;;;;5088849;28;20205;-79
2020/12/05 08:40:59;;;;;;;15.27;10.30;;;0.60;99.90;;;;;;5084756;28;20204;-78
2020/12/05 08:43:25;;;;;;;11.60;8.90;;;0.60;99.90;;;;;;5085712;28;20275;-75
2020/12/05 08:45:51;;;;;;;17.47;9.93;;;0.60;99.90;;;;;;5087607;28;20181;-78
2020/12/05 08:48:18;;;;;;;16.10;14.37;;;0.60;99.90;;;;;;5087822;28;20208;-80
2020/12/05 08:50:44;;;;;;;14.83;11.20;;;0.60;99.90;;;;;;5089031;28;20807;-82
2020/12/05 08:53:11;;;;;;;13.37;9.33;;;0.60;99.90;;;;;;5085334;28;20220;-78
2020/12/05 08:55:37;;;;;;;16.27;10.90;;;0.60;99.90;;;;;;5084942;28;20770;-79
2020/12/05 08:58:04;;;;;;;14.70;9.90;;;0.80;99.90;;;;;;5087277;28;20173;-80
2020/12/05 09:00:32;;;;;;;8.43;6.60;;;0.80;99.90;;;;;;5088282;28;20662;-80
2020/12/05 09:02:58;;;;;;;10.17;7.87;;;0.80;99.90;;;;;;5086375;28;20311;-78
2020/12/05 09:05:24;;;;;;;9.73;5.87;;;0.90;99.90;;;;;;5086764;28;20807;-81
2020/12/05 09:07:52;;;;;;;7.30;6.33;;;0.90;99.90;;;;;;5104596;28;20533;-79
2020/12/05 09:10:18;;;;;;;7.73;6.27;;;1.00;99.90;;;;;;5086289;28;20232;-80
2020/12/05 09:12:44;;;;;;;7.40;4.80;;;1.10;99.90;;;;;;5087968;28;20217;-79
2020/12/05 09:15:10;;;;;;;7.00;5.13;;;1.10;99.90;;;;;;5085710;28;20189;-79
2020/12/05 09:17:36;;;;;;;7.77;5.07;;;1.10;99.90;;;;;;5085153;28;20200;-79
2020/12/05 09:20:20;;;;;;;9.83;5.90;;;1.10;99.90;;;;;;5083625;28;20216;-80
2020/12/05 09:22:56;;;;;;;8.27;5.90;;;1.20;99.90;;;;;;5085469;28;20188;-80
2020/12/05 09:25:28;;;;;;;6.33;4.57;;;1.20;99.90;;;;;;5087375;28;20213;-80
2020/12/05 09:27:53;;;;;;;8.63;5.33;;;1.20;99.90;;;;;;5086404;28;20185;-80
2020/12/05 09:30:21;;;;;;;7.80;6.70;;;1.30;99.90;;;;;;5087092;28;20188;-81
2020/12/05 09:32:48;;;;;;;7.87;5.43;;;1.30;99.90;;;;;;5102986;28;20185;-81
2020/12/05 09:35:22;;;;;;;6.07;4.50;;;1.40;99.90;;;;;;5086543;28;20185;-83
2020/12/05 09:37:49;;;;;;;7.03;5.17;;;1.40;99.90;;;;;;5087695;28;20201;-79
2020/12/05 09:40:17;;;;;;;7.87;6.27;;;1.50;99.90;;;;;;5086395;28;20584;-79
2020/12/05 09:42:43;;;;;;;8.53;6.43;;;1.60;99.90;;;;;;5085728;28;20285;-79
2020/12/05 09:45:11;;;;;;;7.90;5.20;;;1.70;99.90;;;;;;5084615;28;20189;-79
2020/12/05 09:47:37;;;;;;;7.63;5.83;;;1.80;99.90;;;;;;5106195;28;20199;-77
2020/12/05 09:50:05;;;;;;;8.20;6.37;;;1.80;99.90;;;;;;5089421;28;20360;-78
2020/12/05 09:52:31;;;;;;;8.57;5.80;;;1.80;99.90;;;;;;5089025;28;20185;-79
2020/12/05 09:54:56;;;;;;;8.97;5.87;;;1.80;99.90;;;;;;5090947;28;20719;-79
2020/12/05 09:57:22;;;;;;;10.60;6.53;;;1.90;99.90;;;;;;5091172;28;20299;-79
2020/12/05 09:59:48;;;;;;;8.47;6.23;;;2.00;99.90;;;;;;5090674;28;20200;-80
2020/12/05 10:02:13;;;;;;;7.93;5.43;;;2.10;99.90;;;;;;5088989;28;20216;-80
2020/12/05 10:04:39;;;;;;;8.03;5.60;;;2.30;99.90;;;;;;5089963;28;20743;-79
2020/12/05 10:07:06;;;;;;;7.47;5.53;;;2.40;99.90;;;;;;5089125;28;20188;-80
2020/12/05 10:09:31;;;;;;;6.70;4.80;;;2.50;99.90;;;;;;5089301;28;20735;-78
2020/12/05 10:11:57;;;;;;;6.60;5.00;;;2.60;99.90;;;;;;5088205;28;20192;-81
2020/12/05 10:14:23;;;;;;;9.17;5.73;;;2.70;99.90;;;;;;5089607;28;20230;-78
2020/12/05 10:16:48;;;;;;;8.60;5.17;;;2.80;99.90;;;;;;5087542;28;20219;-79
2020/12/05 10:19:14;;;;;;;8.63;4.93;;;2.90;99.90;;;;;;5087694;28;20205;-79
2020/12/05 10:21:40;;;;;;;9.30;5.47;;;2.90;99.90;;;;;;5089015;28;20216;-80
2020/12/05 10:24:05;;;;;;;8.83;5.20;;;3.00;99.90;;;;;;5087427;28;20193;-80
2020/12/05 10:26:31;;;;;;;5.77;4.50;;;3.10;99.90;;;;;;5088517;28;20195;-80
2020/12/05 10:28:57;;;;;;;5.27;4.63;;;3.10;99.90;;;;;;5085737;28;20208;-79
2020/12/05 10:31:22;;;;;;;9.30;5.97;;;3.20;99.90;;;;;;5086249;28;20188;-79
2020/12/05 10:33:48;;;;;;;7.77;4.97;;;3.30;99.90;;;;;;5085719;28;20726;-79
2020/12/05 10:36:19;;;;;;;6.77;5.27;;;3.40;99.90;;;;;;5085364;28;20208;-78
2020/12/05 10:38:45;;;;;;;7.33;4.87;;;3.40;99.90;;;;;;5087972;28;20758;-78
2020/12/05 10:41:14;;;;;;;5.37;3.70;;;3.50;99.90;;;;;;5085642;28;20192;-80
2020/12/05 10:43:40;;;;;;;5.70;4.30;;;3.70;99.90;;;;;;5083633;28;20176;-79
2020/12/05 10:46:06;;;;;;;6.27;4.07;;;3.70;99.90;;;;;;5086392;28;20355;-78
2020/12/05 10:48:31;;;;;;;6.37;4.13;;;3.70;99.90;;;;;;5089230;28;20268;-78
2020/12/05 10:50:58;;;;;;;18.20;9.93;;;3.80;99.90;;;;;;5087686;28;20551;-81
2020/12/05 10:53:24;;;;;;;20.70;12.97;;;3.80;99.90;;;;;;5087135;28;20204;-81
2020/12/05 10:55:49;;;;;;;16.80;10.13;;;3.80;99.90;;;;;;5104438;28;20213;-78
2020/12/05 10:58:15;;;;;;;12.57;8.80;;;3.90;99.90;;;;;;5089217;28;20205;-80
2020/12/05 11:00:40;;;;;;;9.73;4.80;;;4.00;99.90;;;;;;5093119;28;20238;-80
2020/12/05 11:03:06;;;;;;;5.37;4.13;;;4.10;99.90;;;;;;5090964;28;20658;-79
2020/12/05 11:05:31;;;;;;;6.03;3.50;;;4.20;99.90;;;;;;5090207;28;20580;-78
2020/12/05 11:07:57;;;;;;;4.07;3.37;;;4.30;99.90;;;;;;5091258;28;20774;-79
2020/12/05 11:10:22;;;;;;;4.43;3.00;;;4.30;99.90;;;;;;5087271;28;20683;-77
2020/12/05 11:12:48;;;;;;;3.53;2.43;;;4.20;99.90;;;;;;5087852;28;20232;-79
2020/12/05 11:15:14;;;;;;;4.60;3.70;;;4.30;99.90;;;;;;5087524;28;20716;-79
2020/12/05 11:17:39;;;;;;;4.40;2.83;;;4.20;99.90;;;;;;5088750;28;20223;-78
2020/12/05 11:20:05;;;;;;;4.10;3.33;;;4.20;99.90;;;;;;5088870;28;20196;-79
2020/12/05 11:22:30;;;;;;;3.77;2.90;;;4.20;99.90;;;;;;5086847;28;20879;-79
2020/12/05 11:24:56;;;;;;;5.30;2.80;;;4.20;99.90;;;;;;5087061;28;20741;-79
2020/12/05 11:27:21;;;;;;;3.57;2.47;;;4.20;99.90;;;;;;5088399;28;20195;-79
2020/12/05 11:29:47;;;;;;;4.33;2.90;;;4.20;99.90;;;;;;5087157;28;20201;-78
2020/12/05 11:32:13;;;;;;;3.47;2.70;;;4.30;99.90;;;;;;5086141;28;20526;-79
2020/12/05 11:34:38;;;;;;;2.77;2.53;;;4.40;99.90;;;;;;5086953;28;20243;-78
2020/12/05 11:37:04;;;;;;;5.27;2.83;;;4.40;99.90;;;;;;5086461;28;20231;-78
2020/12/05 11:39:29;;;;;;;3.60;2.53;;;4.40;99.90;;;;;;5086519;28;20220;-78
2020/12/05 11:41:55;;;;;;;5.03;2.97;;;4.50;99.90;;;;;;5086656;28;20185;-79
2020/12/05 11:44:20;;;;;;;3.00;2.50;;;4.50;99.90;;;;;;5088066;28;20541;-79
2020/12/05 11:46:49;;;;;;;3.13;2.63;;;4.60;99.90;;;;;;5085414;28;20188;-78
2020/12/05 11:49:16;;;;;;;5.03;2.80;;;4.60;99.90;;;;;;5087655;28;20300;-79
2020/12/05 11:51:41;;;;;;;4.63;2.93;;;4.60;99.90;;;;;;5087886;28;20192;-79
2020/12/05 11:54:07;;;;;;;5.63;3.60;;;4.70;99.90;;;;;;5087197;28;20184;-79
2020/12/05 11:56:33;;;;;;;5.23;3.77;;;4.80;99.90;;;;;;5088898;28;20208;-78
2020/12/05 11:58:58;;;;;;;4.13;2.90;;;4.80;99.90;;;;;;5088214;28;20204;-78
2020/12/05 12:01:24;;;;;;;4.67;3.30;;;4.70;99.90;;;;;;5086706;28;20181;-78
2020/12/05 12:03:49;;;;;;;6.00;4.30;;;4.60;99.90;;;;;;5086074;28;20200;-78
2020/12/05 12:06:18;;;;;;;6.17;3.87;;;4.60;99.90;;;;;;5088471;28;20180;-78
2020/12/05 12:08:44;;;;;;;6.40;4.80;;;4.60;99.90;;;;;;5104103;28;20235;-78
2020/12/05 12:11:17;;;;;;;4.97;4.03;;;4.50;99.90;;;;;;5086298;28;20234;-77
2020/12/05 12:13:43;;;;;;;5.20;3.67;;;4.50;99.90;;;;;;5087961;28;20208;-78
2020/12/05 12:16:12;;;;;;;6.80;4.20;;;4.50;99.90;;;;;;5087500;28;20232;-78
2020/12/05 12:18:37;;;;;;;6.73;3.93;;;4.40;99.90;;;;;;5088430;28;20189;-78
2020/12/05 12:21:03;;;;;;;5.67;4.47;;;4.40;99.90;;;;;;5087232;28;20886;-78
2020/12/05 12:23:28;;;;;;;3.97;3.00;;;4.40;99.90;;;;;;5086260;28;20185;-80
2020/12/05 12:25:54;;;;;;;4.73;3.83;;;4.50;99.90;;;;;;5086137;28;20276;-80
2020/12/05 12:28:19;;;;;;;6.07;3.97;;;4.50;99.90;;;;;;5087277;28;20220;-79
2020/12/05 12:30:45;;;;;;;4.67;3.17;;;4.50;99.90;;;;;;5090111;28;20200;-79
2020/12/05 12:33:11;;;;;;;4.30;2.80;;;4.50;99.90;;;;;;5087124;28;20196;-79
2020/12/05 12:35:37;;;;;;;4.77;3.33;;;4.40;99.90;;;;;;5085720;28;20215;-78
2020/12/05 12:38:02;;;;;;;4.00;3.07;;;4.40;99.90;;;;;;5086440;28;20189;-78
2020/12/05 12:40:28;;;;;;;3.17;2.60;;;4.30;99.90;;;;;;5084157;28;20319;-77
2020/12/05 12:42:53;;;;;;;3.03;2.60;;;4.30;99.90;;;;;;5085315;28;20608;-80
2020/12/05 12:45:27;;;;;;;5.30;3.40;;;4.40;99.90;;;;;;5084075;28;20727;-79
2020/12/05 12:50:37;;;;;;;4.67;2.83;;;4.30;99.90;;;;;;5087091;28;20213;-80
2020/12/05 12:53:03;;;;;;;4.27;3.63;;;4.30;99.90;;;;;;5088427;28;20177;-80
2020/12/05 12:55:29;;;;;;;3.80;3.20;;;4.30;99.90;;;;;;5087445;28;20185;-79
2020/12/05 12:58:03;;;;;;;5.10;3.90;;;4.20;99.90;;;;;;5087871;28;20718;-81
2020/12/05 13:00:29;;;;;;;8.07;4.27;;;4.20;99.90;;;;;;5087012;28;20188;-81
2020/12/05 13:02:55;;;;;;;14.17;4.20;;;4.20;99.90;;;;;;5086031;28;20236;-79
2020/12/05 13:05:20;;;;;;;4.47;3.63;;;4.30;99.90;;;;;;5087390;28;20219;-78